Time;durP1;ratioP1;P1;durP2;ratioP2;P2;SDS_P1;SDS_P2;PMS_P1;PMS_P2;Temp;Humidity;BMP_temperature;BMP_pressure;BME280_temperature;BME280_humidity;BME280_pressure;Samples;Min_cycle;Max_cycle;Signal;HPM_P1;HPM_P2
2023/06/18 00:04:34;;;;;;;11.60;7.40;;;25.00;61.20;;;;;;222424;1266;24180;-42
2023/06/18 00:09:38;;;;;;;14.90;9.00;;;25.10;61.30;;;;;;222326;1254;23145;-39
2023/06/18 00:14:42;;;;;;;11.30;7.90;;;25.10;61.10;;;;;;222609;1266;23883;-41
2023/06/18 00:19:46;;;;;;;10.70;6.90;;;25.10;60.80;;;;;;222356;1255;25626;-40
2023/06/18 00:24:50;;;;;;;10.70;8.00;;;25.10;60.50;;;;;;222253;1262;22599;-41
2023/06/18 00:29:56;;;;;;;11.70;7.50;;;25.00;60.70;;;;;;222330;1254;22527;-39
2023/06/18 00:35:00;;;;;;;8.70;7.20;;;25.00;60.70;;;;;;222871;1262;25362;-42
2023/06/18 00:40:06;;;;;;;10.70;7.00;;;25.10;60.20;;;;;;222686;1254;22621;-39
2023/06/18 00:45:11;;;;;;;10.60;6.80;;;25.10;60.20;;;;;;222583;1254;24758;-44
2023/06/18 00:50:17;;;;;;;10.90;7.20;;;25.10;60.10;;;;;;222573;1265;22545;-42
2023/06/18 00:55:22;;;;;;;8.30;6.60;;;25.00;60.40;;;;;;222606;1267;22511;-41
2023/06/18 01:00:28;;;;;;;10.50;7.40;;;25.10;60.20;;;;;;222503;1263;22616;-40
2023/06/18 01:05:34;;;;;;;8.30;6.90;;;25.00;60.20;;;;;;222392;1254;24242;-40
2023/06/18 01:10:40;;;;;;;9.60;6.70;;;24.90;60.00;;;;;;221968;1263;23889;-42
2023/06/18 01:15:45;;;;;;;10.30;6.00;;;25.00;59.90;;;;;;222445;1264;25272;-41
2023/06/18 01:20:49;;;;;;;9.50;6.30;;;25.00;59.80;;;;;;222539;1264;24314;-40
2023/06/18 01:25:59;;;;;;;6.40;5.80;;;24.90;59.70;;;;;;221844;1262;23111;-41
2023/06/18 01:31:03;;;;;;;7.30;5.80;;;24.90;59.50;;;;;;226836;1263;22561;-40
2023/06/18 01:36:12;;;;;;;8.00;5.80;;;25.00;59.80;;;;;;226701;1255;24189;-41
2023/06/18 01:41:21;;;;;;;8.40;6.70;;;25.10;59.10;;;;;;229665;1254;22518;-41
2023/06/18 01:46:28;;;;;;;7.40;6.10;;;25.00;58.80;;;;;;222315;1258;22685;-42
2023/06/18 01:51:35;;;;;;;7.90;5.70;;;25.00;59.20;;;;;;222283;1254;22693;-40
2023/06/18 01:56:40;;;;;;;8.90;6.40;;;24.80;59.50;;;;;;222361;1254;22760;-42
2023/06/18 02:01:44;;;;;;;7.90;5.90;;;24.70;59.90;;;;;;222484;1255;22999;-44
2023/06/18 02:06:49;;;;;;;9.60;6.10;;;24.60;60.30;;;;;;222541;1255;22636;-41
2023/06/18 02:11:53;;;;;;;8.30;5.80;;;24.60;60.00;;;;;;222402;1260;240268;-41
2023/06/18 02:16:59;;;;;;;7.80;5.90;;;24.60;60.20;;;;;;222220;1254;24331;-41
2023/06/18 02:22:03;;;;;;;8.20;6.70;;;24.60;60.10;;;;;;222381;1254;24244;-41
2023/06/18 02:27:07;;;;;;;6.30;5.40;;;24.60;60.00;;;;;;222724;1254;24532;-43
2023/06/18 02:32:11;;;;;;;6.60;6.00;;;24.60;60.00;;;;;;222537;1253;24340;-44
2023/06/18 02:37:16;;;;;;;7.30;4.90;;;24.50;60.00;;;;;;222651;1260;25362;-44
2023/06/18 02:42:22;;;;;;;7.20;5.80;;;24.50;60.10;;;;;;222368;1266;22526;-44
2023/06/18 02:47:26;;;;;;;7.60;5.60;;;24.50;60.00;;;;;;222460;1258;22508;-44
2023/06/18 02:52:30;;;;;;;8.10;5.70;;;24.50;60.10;;;;;;222428;1257;22526;-47
2023/06/18 02:57:35;;;;;;;5.70;5.20;;;24.50;60.00;;;;;;222170;1261;22715;-41
2023/06/18 03:02:44;;;;;;;5.70;4.50;;;24.40;60.00;;;;;;222559;1254;24376;-41
2023/06/18 03:07:54;;;;;;;6.20;5.40;;;24.40;60.00;;;;;;222293;1256;23878;-41
2023/06/18 03:12:59;;;;;;;6.60;5.10;;;24.40;60.00;;;;;;222426;1262;22524;-41
2023/06/18 03:18:14;;;;;;;5.30;4.80;;;24.40;59.90;;;;;;222357;1253;24254;-40
2023/06/18 03:23:20;;;;;;;7.90;5.10;;;24.40;59.90;;;;;;222725;1257;22642;-41
2023/06/18 03:28:24;;;;;;;5.50;5.00;;;24.50;59.80;;;;;;230292;1260;23189;-41
2023/06/18 03:33:31;;;;;;;5.80;5.30;;;24.50;59.50;;;;;;224627;1259;25285;-40
2023/06/18 03:38:36;;;;;;;5.70;5.10;;;24.50;59.30;;;;;;224428;1253;24310;-40
2023/06/18 03:43:41;;;;;;;6.60;5.00;;;24.50;59.80;;;;;;223324;1261;22514;-40
2023/06/18 03:48:45;;;;;;;6.30;5.10;;;24.50;59.70;;;;;;222757;1266;24719;-42
2023/06/18 03:53:50;;;;;;;5.40;4.90;;;24.40;59.60;;;;;;222421;1260;22553;-43
2023/06/18 03:58:54;;;;;;;5.20;4.70;;;24.30;59.70;;;;;;222425;1254;22512;-41
2023/06/18 04:03:59;;;;;;;7.80;5.20;;;24.30;59.90;;;;;;222716;1253;22643;-41
2023/06/18 04:09:03;;;;;;;6.40;5.10;;;24.20;59.90;;;;;;222565;1256;24245;-41
2023/06/18 04:14:08;;;;;;;6.10;5.10;;;24.20;59.80;;;;;;222513;1253;22931;-42
2023/06/18 04:19:12;;;;;;;6.90;5.10;;;24.30;60.20;;;;;;222318;1263;25451;-40
2023/06/18 04:24:17;;;;;;;5.80;4.80;;;24.30;59.80;;;;;;222394;1261;22526;-43
2023/06/18 04:29:21;;;;;;;7.90;5.20;;;24.30;60.10;;;;;;222335;1260;22569;-45
2023/06/18 04:34:25;;;;;;;8.00;4.70;;;24.30;59.80;;;;;;222554;1260;22584;-43
2023/06/18 04:39:29;;;;;;;5.80;5.20;;;24.30;60.10;;;;;;222229;1254;25489;-41
2023/06/18 04:44:34;;;;;;;8.80;6.10;;;24.30;59.70;;;;;;222374;1257;22648;-41
2023/06/18 04:49:39;;;;;;;5.30;4.80;;;24.20;60.10;;;;;;222451;1257;24224;-41
2023/06/18 04:54:44;;;;;;;5.90;5.10;;;24.20;59.70;;;;;;222394;1252;22517;-40
2023/06/18 04:59:49;;;;;;;6.10;5.30;;;24.30;59.80;;;;;;222283;1268;24179;-42
2023/06/18 05:04:53;;;;;;;5.60;5.10;;;24.30;59.60;;;;;;222201;1254;22528;-41
2023/06/18 05:09:58;;;;;;;6.10;5.00;;;24.30;59.70;;;;;;222097;1262;22515;-42
2023/06/18 05:15:02;;;;;;;6.80;5.80;;;24.30;59.70;;;;;;221952;1262;22518;-41
2023/06/18 05:20:08;;;;;;;5.50;4.90;;;24.20;59.70;;;;;;221803;1263;24153;-43
2023/06/18 05:25:12;;;;;;;6.00;4.70;;;24.30;59.80;;;;;;222324;1254;22535;-42
2023/06/18 05:30:17;;;;;;;5.90;4.60;;;24.30;60.10;;;;;;222211;1255;24197;-44
2023/06/18 05:35:21;;;;;;;6.40;4.60;;;24.30;59.80;;;;;;222023;1258;24248;-41
2023/06/18 05:40:29;;;;;;;5.80;5.20;;;24.30;59.70;;;;;;222202;1262;22518;-42
2023/06/18 05:45:37;;;;;;;6.60;5.70;;;24.30;60.20;;;;;;222285;1263;25387;-42
2023/06/18 05:50:43;;;;;;;6.60;5.10;;;24.30;59.70;;;;;;222051;1257;22558;-39
2023/06/18 05:55:48;;;;;;;5.40;4.90;;;24.30;59.70;;;;;;222103;1263;22518;-41
2023/06/18 06:00:53;;;;;;;6.50;5.30;;;24.30;59.70;;;;;;222053;1252;24213;-42
2023/06/18 06:05:57;;;;;;;5.40;4.90;;;24.30;59.80;;;;;;222423;1257;22523;-44
2023/06/18 06:11:02;;;;;;;5.50;4.80;;;24.30;59.80;;;;;;222448;1263;25352;-41
2023/06/18 06:16:07;;;;;;;6.80;5.10;;;24.30;60.00;;;;;;222205;1267;22535;-40
2023/06/18 06:21:12;;;;;;;5.40;4.80;;;24.40;60.10;;;;;;222487;1257;22509;-43
2023/06/18 06:26:16;;;;;;;5.30;4.70;;;24.30;59.70;;;;;;222370;1260;22797;-40
2023/06/18 06:31:21;;;;;;;6.10;5.20;;;24.30;59.70;;;;;;222561;1265;22516;-41
2023/06/18 06:36:26;;;;;;;5.50;4.90;;;24.40;59.80;;;;;;222386;1252;24733;-42
2023/06/18 06:41:30;;;;;;;8.40;4.80;;;24.40;60.00;;;;;;222553;1262;22521;-41
2023/06/18 06:46:38;;;;;;;4.70;4.30;;;24.30;60.10;;;;;;222390;1257;24167;-41
2023/06/18 06:51:57;;;;;;;5.10;4.70;;;24.40;60.30;;;;;;222639;1255;22633;-41
2023/06/18 06:57:01;;;;;;;5.30;4.80;;;24.40;60.30;;;;;;222688;1262;24444;-43
2023/06/18 07:02:05;;;;;;;4.80;4.20;;;24.40;60.20;;;;;;222485;1253;24203;-49
2023/06/18 07:07:13;;;;;;;9.90;5.00;;;24.50;60.00;;;;;;222715;1252;24428;-48
2023/06/18 07:12:17;;;;;;;5.60;4.70;;;24.50;60.30;;;;;;222729;1261;22543;-49
2023/06/18 07:17:24;;;;;;;8.60;4.50;;;24.60;60.00;;;;;;222365;1261;22550;-46
2023/06/18 07:22:28;;;;;;;4.90;4.50;;;24.60;59.40;;;;;;222436;1268;22534;-47
2023/06/18 07:27:34;;;;;;;5.40;4.20;;;24.70;59.20;;;;;;222280;1253;23939;-48
2023/06/18 07:32:40;;;;;;;4.40;4.10;;;24.70;59.80;;;;;;222494;1260;23918;-49
2023/06/18 07:37:44;;;;;;;8.10;4.20;;;24.60;59.50;;;;;;222592;1256;22510;-56
2023/06/18 07:42:48;;;;;;;10.80;4.40;;;24.70;59.80;;;;;;222529;1255;22525;-55
2023/06/18 07:47:52;;;;;;;9.60;4.80;;;24.70;59.50;;;;;;222497;1256;22909;-56
2023/06/18 07:52:57;;;;;;;7.40;4.20;;;24.70;59.80;;;;;;222635;1262;22563;-48
2023/06/18 07:58:01;;;;;;;6.30;4.80;;;24.80;59.60;;;;;;222284;1256;24276;-47
2023/06/18 08:03:05;;;;;;;6.80;4.30;;;24.70;60.40;;;;;;222373;1250;22571;-46
2023/06/18 08:08:10;;;;;;;4.30;4.00;;;24.70;59.50;;;;;;222398;1253;25262;-48
2023/06/18 08:13:14;;;;;;;13.80;4.50;;;24.80;59.50;;;;;;222337;1257;22624;-54
2023/06/18 08:18:18;;;;;;;4.80;4.20;;;24.80;60.70;;;;;;222269;1265;22521;-47
2023/06/18 08:23:23;;;;;;;8.90;4.80;;;24.90;60.40;;;;;;222571;1253;25279;-51
2023/06/18 08:28:27;;;;;;;6.20;4.30;;;24.80;59.90;;;;;;222340;1249;22517;-52
2023/06/18 08:33:31;;;;;;;8.00;4.60;;;24.60;58.80;;;;;;222480;1260;24189;-49
2023/06/18 08:38:35;;;;;;;5.50;5.10;;;24.50;58.20;;;;;;222593;1260;22527;-48
2023/06/18 08:43:39;;;;;;;5.30;4.90;;;24.40;57.60;;;;;;222415;1257;22542;-55
2023/06/18 08:48:48;;;;;;;5.00;4.60;;;24.40;56.70;;;;;;222500;1264;22559;-47
2023/06/18 08:54:08;;;;;;;7.90;4.50;;;24.30;56.20;;;;;;222416;1266;22569;-47
2023/06/18 08:59:14;;;;;;;13.00;6.50;;;24.50;56.10;;;;;;222469;1255;25249;-46
2023/06/18 09:04:21;;;;;;;5.40;4.90;;;24.60;56.70;;;;;;222289;1262;25242;-50
2023/06/18 09:09:28;;;;;;;7.40;5.20;;;24.50;57.20;;;;;;222346;1261;22513;-49
2023/06/18 09:14:32;;;;;;;11.50;5.90;;;24.60;56.30;;;;;;222464;1258;22526;-47
2023/06/18 09:19:37;;;;;;;7.50;6.90;;;24.50;56.20;;;;;;222075;1258;22537;-47
2023/06/18 09:24:41;;;;;;;27.40;10.20;;;24.40;55.40;;;;;;222520;1259;22851;-49
2023/06/18 09:29:45;;;;;;;15.20;11.90;;;24.50;55.70;;;;;;222308;1262;24257;-43
2023/06/18 09:34:49;;;;;;;32.80;10.80;;;24.60;55.60;;;;;;222524;1252;22511;-45
2023/06/18 09:39:55;;;;;;;16.90;9.30;;;24.60;55.20;;;;;;222255;1253;22514;-48
2023/06/18 09:45:00;;;;;;;10.40;7.40;;;24.50;54.50;;;;;;222486;1252;25431;-46
2023/06/18 09:50:06;;;;;;;11.80;8.40;;;24.40;54.70;;;;;;222403;1253;25432;-43
2023/06/18 09:55:27;;;;;;;8.20;7.50;;;24.50;55.30;;;;;;222778;1254;22634;-48
2023/06/18 10:00:31;;;;;;;6.90;6.20;;;24.30;54.80;;;;;;222458;1256;22514;-47
2023/06/18 10:05:35;;;;;;;6.40;5.90;;;24.40;54.60;;;;;;222636;1251;24068;-53
2023/06/18 10:10:41;;;;;;;7.20;6.70;;;24.50;53.80;;;;;;222369;1263;25349;-47
2023/06/18 10:15:46;;;;;;;7.60;7.00;;;24.70;53.80;;;;;;222625;1261;24214;-48
2023/06/18 10:20:54;;;;;;;7.80;6.50;;;24.70;53.80;;;;;;222391;1253;24184;-52
2023/06/18 10:26:00;;;;;;;6.60;6.00;;;24.70;53.40;;;;;;222493;1255;24418;-49
2023/06/18 10:31:06;;;;;;;6.80;6.30;;;24.70;53.50;;;;;;222707;1259;22583;-46
2023/06/18 10:36:11;;;;;;;6.70;6.20;;;24.90;53.80;;;;;;222567;1262;22531;-48
2023/06/18 10:41:19;;;;;;;7.10;6.40;;;25.00;53.30;;;;;;222551;1247;24155;-47
2023/06/18 10:46:24;;;;;;;6.00;5.60;;;25.10;52.50;;;;;;221073;1267;24071;-51
2023/06/18 10:51:28;;;;;;;4.90;4.60;;;25.20;52.00;;;;;;220809;1267;25204;-49
2023/06/18 10:56:36;;;;;;;5.30;4.90;;;25.30;51.30;;;;;;220875;1261;22706;-46
2023/06/18 11:01:42;;;;;;;4.50;4.30;;;25.30;51.60;;;;;;221379;1259;26576;-51
2023/06/18 11:06:47;;;;;;;4.50;4.20;;;25.10;50.40;;;;;;222272;1269;23140;-47
2023/06/18 11:11:51;;;;;;;4.60;4.30;;;25.20;50.90;;;;;;222150;1263;26503;-48
2023/06/18 11:17:15;;;;;;;4.30;3.90;;;25.30;50.70;;;;;;222189;1258;22599;-47
2023/06/18 11:22:19;;;;;;;6.80;4.50;;;25.40;51.00;;;;;;222174;1265;22516;-55
2023/06/18 11:27:25;;;;;;;7.40;4.50;;;25.40;51.30;;;;;;222129;1262;22628;-47
2023/06/18 11:32:29;;;;;;;9.40;4.80;;;25.40;51.40;;;;;;224533;1265;22526;-49
2023/06/18 11:37:35;;;;;;;4.60;4.20;;;25.60;51.70;;;;;;223334;1260;24093;-44
2023/06/18 11:42:53;;;;;;;4.90;4.10;;;25.70;50.90;;;;;;222371;1256;22651;-41
2023/06/18 11:47:57;;;;;;;5.90;4.10;;;25.60;51.30;;;;;;222024;1262;22524;-39
2023/06/18 11:53:05;;;;;;;4.90;4.50;;;25.50;52.20;;;;;;224052;1256;22531;-40
2023/06/18 11:58:09;;;;;;;4.40;4.00;;;25.60;51.60;;;;;;222847;1254;24224;-41
2023/06/18 12:03:13;;;;;;;4.40;4.10;;;25.70;51.00;;;;;;222025;1256;22508;-43
2023/06/18 12:08:18;;;;;;;4.90;4.50;;;25.60;51.20;;;;;;222833;1260;24202;-44
2023/06/18 12:13:34;;;;;;;6.30;4.00;;;25.60;50.80;;;;;;222553;1263;24190;-40
2023/06/18 12:18:42;;;;;;;4.60;4.30;;;25.60;51.20;;;;;;222658;1260;25383;-43
2023/06/18 12:23:46;;;;;;;4.60;4.30;;;25.60;51.70;;;;;;222712;1260;23897;-41
2023/06/18 12:28:50;;;;;;;4.30;4.00;;;25.60;51.20;;;;;;222970;1264;22526;-42
2023/06/18 12:33:54;;;;;;;4.80;4.50;;;25.70;51.30;;;;;;221654;1265;22531;-43
2023/06/18 12:38:58;;;;;;;5.20;4.30;;;25.60;51.80;;;;;;221472;1266;22518;-42
2023/06/18 12:44:04;;;;;;;5.20;4.80;;;25.60;51.50;;;;;;220308;1265;22565;-42
2023/06/18 12:49:08;;;;;;;5.30;4.40;;;25.40;52.40;;;;;;220611;1270;22543;-40
2023/06/18 12:54:18;;;;;;;4.40;4.10;;;25.50;52.20;;;;;;221258;1252;24240;-41
2023/06/18 12:59:23;;;;;;;4.90;4.50;;;25.60;51.60;;;;;;221245;1254;22514;-39
2023/06/18 13:04:27;;;;;;;4.50;4.20;;;25.60;51.80;;;;;;222806;1260;22555;-42
2023/06/18 13:09:31;;;;;;;5.00;4.70;;;25.50;51.90;;;;;;222407;1265;22630;-42
2023/06/18 13:14:35;;;;;;;5.00;4.60;;;25.60;52.00;;;;;;222649;1263;22638;-41
2023/06/18 13:19:41;;;;;;;4.70;4.40;;;25.60;51.70;;;;;;222686;1265;22560;-41
2023/06/18 13:25:06;;;;;;;4.60;4.30;;;25.60;52.20;;;;;;222505;1267;22649;-41
2023/06/18 13:30:10;;;;;;;5.60;5.10;;;25.70;51.80;;;;;;222511;1263;22512;-41
2023/06/18 13:35:16;;;;;;;4.60;4.30;;;25.60;51.90;;;;;;222701;1265;24423;-41
2023/06/18 13:40:21;;;;;;;5.00;4.60;;;25.60;52.00;;;;;;222945;1261;24209;-41
2023/06/18 13:45:25;;;;;;;5.20;4.80;;;25.60;52.10;;;;;;222355;1265;22520;-43
2023/06/18 13:50:30;;;;;;;4.90;4.60;;;25.60;52.60;;;;;;222482;1267;22635;-41
2023/06/18 13:55:34;;;;;;;4.70;4.40;;;25.40;52.10;;;;;;222446;1262;22514;-40
2023/06/18 14:00:39;;;;;;;4.80;4.50;;;25.50;52.10;;;;;;222569;1262;22521;-40
2023/06/18 14:05:43;;;;;;;5.00;4.70;;;25.60;52.10;;;;;;222263;1256;22572;-42
2023/06/18 14:10:48;;;;;;;5.30;4.80;;;25.50;52.00;;;;;;221914;1257;233407;-42
2023/06/18 14:15:52;;;;;;;4.60;4.30;;;25.50;52.20;;;;;;222121;1255;26559;-42
2023/06/18 14:20:56;;;;;;;4.80;4.50;;;25.50;51.90;;;;;;222136;1258;22507;-42
2023/06/18 14:26:01;;;;;;;5.40;5.00;;;25.50;52.10;;;;;;221925;1265;22519;-43
2023/06/18 14:31:05;;;;;;;5.20;4.80;;;25.60;52.60;;;;;;222237;1256;22522;-42
2023/06/18 14:36:09;;;;;;;4.50;4.20;;;25.50;52.60;;;;;;222134;1268;23910;-42
2023/06/18 14:41:14;;;;;;;5.10;4.70;;;25.40;52.40;;;;;;222310;1265;22574;-43
2023/06/18 14:46:18;;;;;;;4.40;4.00;;;25.40;52.30;;;;;;222065;1262;22774;-41
2023/06/18 14:51:23;;;;;;;6.10;5.60;;;25.40;52.10;;;;;;221883;1269;25284;-41
2023/06/18 14:56:28;;;;;;;6.20;4.90;;;25.40;52.00;;;;;;222319;1262;24149;-40
2023/06/18 15:01:32;;;;;;;5.00;4.60;;;25.40;52.00;;;;;;222065;1257;24167;-41
2023/06/18 15:06:39;;;;;;;4.90;4.50;;;25.40;52.50;;;;;;222051;1268;22546;-41
2023/06/18 15:11:44;;;;;;;5.30;4.90;;;25.40;52.20;;;;;;222891;1265;22626;-41
2023/06/18 15:16:48;;;;;;;5.30;4.90;;;25.40;52.30;;;;;;222486;1262;25278;-41
2023/06/18 15:21:52;;;;;;;4.50;4.20;;;25.40;52.00;;;;;;222560;1262;22498;-40
2023/06/18 15:26:56;;;;;;;5.50;5.10;;;25.40;51.90;;;;;;221488;1273;22520;-41
2023/06/18 15:32:00;;;;;;;4.70;4.40;;;25.40;51.30;;;;;;221296;1259;22515;-40
2023/06/18 15:37:06;;;;;;;5.00;4.60;;;25.40;51.40;;;;;;221352;1272;23139;-43
2023/06/18 15:42:12;;;;;;;5.20;4.80;;;25.40;51.00;;;;;;221343;1271;24235;-40
2023/06/18 15:47:16;;;;;;;4.60;4.30;;;25.40;51.30;;;;;;221514;1256;25263;-42
2023/06/18 15:52:21;;;;;;;4.60;4.30;;;25.30;51.20;;;;;;222429;1260;25310;-42
2023/06/18 15:57:25;;;;;;;4.60;4.30;;;25.30;51.10;;;;;;222536;1257;22784;-40
2023/06/18 16:02:32;;;;;;;4.30;3.80;;;25.30;50.80;;;;;;222640;1249;22514;-41
2023/06/18 16:07:38;;;;;;;5.30;4.90;;;25.30;50.80;;;;;;222682;1267;24180;-41
2023/06/18 16:12:42;;;;;;;4.30;4.00;;;25.40;50.50;;;;;;222719;1254;22514;-41
2023/06/18 16:17:47;;;;;;;4.90;4.60;;;25.30;50.90;;;;;;222549;1256;24168;-41
2023/06/18 16:22:51;;;;;;;4.50;4.20;;;25.40;50.70;;;;;;222758;1261;23536;-41
2023/06/18 16:27:59;;;;;;;4.70;4.40;;;25.40;50.80;;;;;;222747;1266;22522;-43
2023/06/18 16:33:04;;;;;;;4.60;4.30;;;25.40;50.80;;;;;;222805;1256;22506;-40
2023/06/18 16:38:08;;;;;;;4.80;4.50;;;25.40;50.80;;;;;;222649;1260;22501;-40
2023/06/18 16:43:12;;;;;;;4.90;4.60;;;25.40;50.50;;;;;;222403;1260;22508;-40
2023/06/18 16:48:16;;;;;;;4.70;4.30;;;25.30;50.30;;;;;;222535;1254;24170;-41
2023/06/18 16:53:20;;;;;;;4.50;4.20;;;25.30;50.20;;;;;;222554;1266;25919;-41
2023/06/18 16:58:25;;;;;;;5.00;4.70;;;25.40;50.20;;;;;;222520;1265;22568;-40
2023/06/18 17:03:29;;;;;;;4.80;4.30;;;25.40;50.20;;;;;;222302;1266;22523;-44
2023/06/18 17:08:35;;;;;;;5.50;4.80;;;25.40;50.20;;;;;;222488;1263;22505;-42
2023/06/18 17:13:40;;;;;;;4.80;4.50;;;25.40;50.30;;;;;;222458;1263;23143;-41
2023/06/18 17:18:44;;;;;;;4.40;4.10;;;25.40;50.50;;;;;;222553;1256;25555;-44
2023/06/18 17:23:49;;;;;;;5.30;5.00;;;25.40;50.40;;;;;;222666;1259;22574;-41
2023/06/18 17:28:55;;;;;;;4.90;4.60;;;25.40;50.60;;;;;;222459;1262;24276;-41
2023/06/18 17:33:59;;;;;;;5.40;5.00;;;25.30;50.60;;;;;;222784;1268;25333;-40
2023/06/18 17:39:04;;;;;;;5.10;4.60;;;25.30;50.70;;;;;;222716;1267;25327;-41
2023/06/18 17:44:08;;;;;;;5.10;4.70;;;25.40;50.40;;;;;;222508;1256;24314;-40
2023/06/18 17:49:14;;;;;;;4.90;4.50;;;25.40;50.40;;;;;;223045;1261;24624;-42
2023/06/18 17:54:19;;;;;;;4.90;4.50;;;25.40;50.50;;;;;;222550;1266;22542;-41
2023/06/18 17:59:23;;;;;;;4.90;4.60;;;25.30;51.10;;;;;;222586;1263;22636;-39
2023/06/18 18:04:28;;;;;;;4.80;4.50;;;25.30;50.80;;;;;;222173;1259;22612;-40
2023/06/18 18:09:33;;;;;;;4.90;4.60;;;25.30;50.80;;;;;;222447;1246;22511;-41
2023/06/18 18:14:40;;;;;;;5.30;4.90;;;25.30;50.90;;;;;;222672;1265;25204;-41
2023/06/18 18:19:45;;;;;;;5.10;4.70;;;25.30;50.80;;;;;;221985;1268;26697;-40
2023/06/18 18:24:52;;;;;;;6.60;4.00;;;25.30;50.80;;;;;;221825;1267;22714;-40
2023/06/18 18:29:56;;;;;;;7.20;4.40;;;25.20;51.30;;;;;;221991;1249;24198;-47
2023/06/18 18:35:02;;;;;;;12.40;5.00;;;25.40;51.90;;;;;;221788;1266;25242;-48
2023/06/18 18:40:08;;;;;;;10.40;4.90;;;25.40;51.90;;;;;;221775;1269;22766;-46
2023/06/18 18:45:13;;;;;;;5.10;4.70;;;25.40;52.20;;;;;;221692;1266;22524;-46
2023/06/18 18:50:20;;;;;;;6.80;4.80;;;25.20;53.10;;;;;;221779;1257;24256;-47
2023/06/18 18:55:26;;;;;;;6.90;5.00;;;25.10;53.10;;;;;;222165;1261;25589;-50
2023/06/18 19:00:30;;;;;;;16.70;5.70;;;25.20;55.30;;;;;;222366;1261;25373;-46
2023/06/18 19:05:36;;;;;;;15.80;5.40;;;25.10;54.90;;;;;;222552;1267;25923;-45
2023/06/18 19:10:42;;;;;;;14.90;5.50;;;25.00;55.00;;;;;;222420;1261;22507;-46
2023/06/18 19:15:49;;;;;;;12.00;4.60;;;25.20;56.80;;;;;;222765;1267;23913;-44
2023/06/18 19:20:54;;;;;;;6.70;5.50;;;25.10;56.20;;;;;;222444;1264;22514;-51
2023/06/18 19:26:01;;;;;;;11.90;5.40;;;25.10;55.60;;;;;;222577;1262;24164;-47
2023/06/18 19:31:07;;;;;;;7.50;5.50;;;25.10;56.30;;;;;;222547;1250;23876;-47
2023/06/18 19:36:12;;;;;;;17.40;8.00;;;25.20;56.00;;;;;;222568;1266;22497;-46
2023/06/18 19:41:17;;;;;;;6.20;5.10;;;25.10;56.50;;;;;;222199;1261;22493;-45
2023/06/18 19:46:23;;;;;;;5.60;5.10;;;25.10;55.90;;;;;;222498;1263;24183;-46
2023/06/18 19:51:29;;;;;;;12.50;5.60;;;25.10;55.80;;;;;;222295;1266;22515;-48
2023/06/18 19:56:34;;;;;;;8.10;5.40;;;25.10;56.10;;;;;;222494;1257;24171;-50
2023/06/18 20:01:39;;;;;;;9.80;5.70;;;25.00;56.30;;;;;;222310;1265;24286;-49
2023/06/18 20:06:44;;;;;;;6.40;5.70;;;25.00;56.20;;;;;;222377;1261;23886;-44
2023/06/18 20:11:48;;;;;;;11.90;6.80;;;24.90;55.50;;;;;;222541;1261;22635;-55
2023/06/18 20:16:53;;;;;;;7.80;7.00;;;24.80;56.00;;;;;;222537;1262;22580;-51
2023/06/18 20:21:57;;;;;;;7.20;6.70;;;24.70;56.50;;;;;;222482;1259;23135;-49
2023/06/18 20:27:03;;;;;;;7.40;6.70;;;24.70;56.20;;;;;;222741;1266;23955;-48
2023/06/18 20:32:07;;;;;;;9.20;6.50;;;24.70;57.10;;;;;;222526;1262;22516;-45
2023/06/18 20:37:13;;;;;;;7.20;6.60;;;24.80;56.20;;;;;;222526;1263;24252;-46
2023/06/18 20:42:17;;;;;;;7.40;6.70;;;24.90;56.10;;;;;;222388;1269;24409;-52
2023/06/18 20:47:22;;;;;;;6.40;5.90;;;25.00;56.00;;;;;;222519;1267;22528;-45
2023/06/18 20:52:27;;;;;;;8.90;6.70;;;25.00;56.20;;;;;;221976;1261;22516;-47
2023/06/18 20:57:32;;;;;;;6.90;6.30;;;25.10;55.90;;;;;;230152;1268;22334;-45
2023/06/18 21:02:38;;;;;;;6.90;6.20;;;25.30;55.30;;;;;;230383;1266;22161;-45
2023/06/18 21:07:43;;;;;;;7.50;6.70;;;25.50;54.80;;;;;;226318;1268;22517;-48
2023/06/18 21:12:48;;;;;;;16.30;7.70;;;25.50;58.60;;;;;;222220;1256;24193;-51
2023/06/18 21:17:52;;;;;;;10.40;6.40;;;25.40;63.10;;;;;;222553;1255;23569;-49
2023/06/18 21:22:56;;;;;;;9.60;7.10;;;25.10;58.90;;;;;;222706;1264;26510;-44
2023/06/18 21:28:00;;;;;;;11.20;6.90;;;25.20;60.10;;;;;;222278;1263;24327;-49
2023/06/18 21:33:05;;;;;;;6.90;6.30;;;25.30;60.00;;;;;;222430;1261;22893;-51
2023/06/18 21:38:09;;;;;;;6.40;5.80;;;25.30;60.70;;;;;;222469;1254;22520;-50
2023/06/18 21:43:14;;;;;;;8.30;6.00;;;25.30;60.50;;;;;;222485;1261;22514;-52
2023/06/18 21:48:18;;;;;;;6.30;5.80;;;25.40;60.00;;;;;;222400;1254;22526;-48
2023/06/18 21:53:26;;;;;;;6.60;5.90;;;25.40;59.30;;;;;;222517;1254;24183;-48
2023/06/18 21:58:33;;;;;;;8.00;5.90;;;25.40;59.40;;;;;;222373;1258;22543;-48
2023/06/18 22:03:38;;;;;;;7.20;5.50;;;25.40;59.60;;;;;;222380;1254;22693;-47
2023/06/18 22:08:51;;;;;;;6.00;5.50;;;25.40;59.90;;;;;;222376;1260;22599;-49
2023/06/18 22:13:56;;;;;;;5.60;5.20;;;25.40;59.40;;;;;;222831;1260;22526;-50
2023/06/18 22:19:13;;;;;;;6.30;5.60;;;25.50;59.20;;;;;;222606;1257;22512;-48
2023/06/18 22:24:17;;;;;;;5.60;5.20;;;25.50;59.20;;;;;;222697;1254;22642;-47
2023/06/18 22:29:22;;;;;;;6.00;5.50;;;25.40;59.10;;;;;;222584;1254;22534;-49
2023/06/18 22:34:26;;;;;;;6.60;5.20;;;25.40;59.50;;;;;;222579;1260;24189;-49
2023/06/18 22:39:44;;;;;;;6.90;5.40;;;25.40;59.20;;;;;;222470;1255;22530;-51
2023/06/18 22:44:49;;;;;;;5.40;5.00;;;25.40;59.10;;;;;;222397;1260;22515;-48
2023/06/18 22:49:53;;;;;;;6.30;5.20;;;25.50;60.00;;;;;;222327;1260;24100;-47
2023/06/18 22:54:57;;;;;;;5.60;5.10;;;25.40;59.50;;;;;;222393;1252;22633;-45
2023/06/18 23:00:08;;;;;;;8.50;5.50;;;25.40;59.30;;;;;;222512;1254;24298;-50
2023/06/18 23:05:12;;;;;;;5.10;4.60;;;25.40;59.30;;;;;;222431;1261;24012;-47
2023/06/18 23:10:23;;;;;;;5.40;4.90;;;25.40;59.40;;;;;;222474;1254;22525;-50
2023/06/18 23:15:40;;;;;;;5.50;5.00;;;25.30;59.30;;;;;;222657;1254;22532;-51
2023/06/18 23:20:44;;;;;;;5.00;4.50;;;25.40;59.70;;;;;;222354;1256;22521;-47
2023/06/18 23:25:48;;;;;;;5.40;5.00;;;25.30;59.20;;;;;;222334;1254;24366;-48
2023/06/18 23:30:53;;;;;;;4.90;4.50;;;25.30;59.10;;;;;;222495;1254;22538;-48
2023/06/18 23:35:58;;;;;;;4.90;4.50;;;25.30;59.50;;;;;;222512;1261;25736;-50
2023/06/18 23:41:02;;;;;;;4.60;4.20;;;25.30;58.90;;;;;;222592;1257;22955;-46
2023/06/18 23:46:06;;;;;;;4.80;4.50;;;25.30;58.70;;;;;;222445;1251;24212;-47
2023/06/18 23:51:10;;;;;;;4.50;4.10;;;25.30;58.60;;;;;;222447;1258;22687;-46
2023/06/18 23:56:15;;;;;;;4.80;4.50;;;25.30;58.80;;;;;;222476;1254;24240;-50
